Time;durP1;ratioP1;P1;durP2;ratioP2;P2;SDS_P1;SDS_P2;PMS_P1;PMS_P2;Temp;Humidity;BMP_temperature;BMP_pressure;BME280_temperature;BME280_humidity;BME280_pressure;Samples;Min_cycle;Max_cycle;Signal;HPM_P1;HPM_P2
2023/05/02 00:01:35;;;;;;;;;8.50;8.25;;;;;;;;5014788;28;45447;-73
2023/05/02 00:04:00;;;;;;;;;7.25;7.25;;;;;;;;5015350;28;45740;-74
2023/05/02 00:06:26;;;;;;;;;13.25;10.00;;;;;;;;5014794;28;45476;-74
2023/05/02 00:08:51;;;;;;;;;12.50;9.75;;;;;;;;5014489;28;45433;-74
2023/05/02 00:11:16;;;;;;;;;12.50;12.25;;;;;;;;5015133;28;45494;-74
2023/05/02 00:13:42;;;;;;;;;15.00;11.50;;;;;;;;5014143;28;46556;-74
2023/05/02 00:16:08;;;;;;;;;12.00;10.00;;;;;;;;5014438;28;45524;-73
2023/05/02 00:18:33;;;;;;;;;10.25;10.25;;;;;;;;5015571;28;45435;-75
2023/05/02 00:20:59;;;;;;;;;11.75;11.25;;;;;;;;5015675;28;45466;-74
2023/05/02 00:23:24;;;;;;;;;15.00;15.00;;;;;;;;5015880;28;45652;-73
2023/05/02 00:25:49;;;;;;;;;18.50;15.75;;;;;;;;5019155;28;45576;-73
2023/05/02 00:28:14;;;;;;;;;16.00;13.50;;;;;;;;5019536;28;45455;-73
2023/05/02 00:30:43;;;;;;;;;19.00;17.50;;;;;;;;5018122;28;45362;-74
2023/05/02 00:33:09;;;;;;;;;17.50;17.50;;;;;;;;5019220;28;46280;-74
2023/05/02 00:35:34;;;;;;;;;20.75;18.25;;;;;;;;5017866;28;45250;-73
2023/05/02 00:37:59;;;;;;;;;23.00;19.25;;;;;;;;5019245;28;45472;-73
2023/05/02 00:40:25;;;;;;;;;23.00;22.00;;;;;;;;5019027;28;45609;-73
2023/05/02 00:42:50;;;;;;;;;20.00;18.75;;;;;;;;5018819;28;46070;-73
2023/05/02 00:45:15;;;;;;;;;28.50;25.50;;;;;;;;5017543;28;45384;-73
2023/05/02 00:47:41;;;;;;;;;22.00;22.00;;;;;;;;5018995;28;45454;-73
2023/05/02 00:50:06;;;;;;;;;23.25;22.25;;;;;;;;5019217;28;45408;-73
2023/05/02 00:52:31;;;;;;;;;27.00;22.50;;;;;;;;5018643;28;46095;-73
2023/05/02 00:54:57;;;;;;;;;22.50;22.50;;;;;;;;5017558;28;45387;-73
2023/05/02 00:57:22;;;;;;;;;26.25;16.75;;;;;;;;5018264;28;45373;-73
2023/05/02 00:59:47;;;;;;;;;21.25;15.00;;;;;;;;5017987;28;45536;-73
2023/05/02 01:02:34;;;;;;;;;13.50;13.50;;;;;;;;5017528;28;46597;-73
2023/05/02 01:05:19;;;;;;;;;19.25;16.50;;;;;;;;5016408;28;45355;-73
2023/05/02 01:08:03;;;;;;;;;17.25;15.25;;;;;;;;5017874;28;45335;-73
2023/05/02 01:10:40;;;;;;;;;17.25;13.25;;;;;;;;5017803;28;45387;-74
2023/05/02 01:13:08;;;;;;;;;13.75;13.00;;;;;;;;5017343;28;46483;-74
2023/05/02 01:15:36;;;;;;;;;14.75;14.75;;;;;;;;4997871;28;45371;-74
2023/05/02 01:18:03;;;;;;;;;14.50;13.25;;;;;;;;4996426;28;45302;-74
2023/05/02 01:20:30;;;;;;;;;13.00;10.00;;;;;;;;5004998;28;45459;-74
2023/05/02 01:22:57;;;;;;;;;13.50;12.75;;;;;;;;5017152;28;46099;-74
2023/05/02 01:25:28;;;;;;;;;13.00;13.00;;;;;;;;5017446;28;45407;-75
2023/05/02 01:28:04;;;;;;;;;12.50;12.25;;;;;;;;5017947;28;45406;-74
2023/05/02 01:30:32;;;;;;;;;14.75;14.50;;;;;;;;5016121;28;45440;-75
2023/05/02 01:32:58;;;;;;;;;21.00;18.50;;;;;;;;5016861;28;45995;-74
2023/05/02 01:35:24;;;;;;;;;14.50;13.50;;;;;;;;5016226;28;45383;-75
2023/05/02 01:37:51;;;;;;;;;21.00;16.00;;;;;;;;5017428;28;45329;-75
2023/05/02 01:40:18;;;;;;;;;11.50;9.75;;;;;;;;5016776;28;45555;-74
2023/05/02 01:42:45;;;;;;;;;18.75;18.00;;;;;;;;5016712;28;46293;-74
2023/05/02 01:45:11;;;;;;;;;17.25;17.25;;;;;;;;5017153;28;45511;-74
2023/05/02 01:47:38;;;;;;;;;18.00;18.00;;;;;;;;5015997;28;45445;-75
2023/05/02 01:50:05;;;;;;;;;22.25;20.25;;;;;;;;5016818;28;45442;-74
2023/05/02 01:52:30;;;;;;;;;18.75;17.50;;;;;;;;5015329;28;47639;-74
2023/05/02 01:54:58;;;;;;;;;23.25;20.75;;;;;;;;5016796;28;45408;-74
2023/05/02 01:57:23;;;;;;;;;21.00;20.25;;;;;;;;5017211;28;45434;-75
2023/05/02 01:59:49;;;;;;;;;21.50;19.50;;;;;;;;5015762;28;45506;-75
2023/05/02 02:02:15;;;;;;;;;18.00;16.50;;;;;;;;5016430;28;46254;-74
2023/05/02 02:04:40;;;;;;;;;18.25;17.25;;;;;;;;5016630;28;45501;-75
2023/05/02 02:07:07;;;;;;;;;17.75;17.75;;;;;;;;5016649;28;45332;-75
2023/05/02 02:09:33;;;;;;;;;26.25;22.75;;;;;;;;5016846;28;45397;-75
2023/05/02 02:12:04;;;;;;;;;23.00;19.50;;;;;;;;5015301;28;47126;-74
2023/05/02 02:14:34;;;;;;;;;20.50;19.50;;;;;;;;5016594;28;45355;-75
2023/05/02 02:17:00;;;;;;;;;20.75;20.00;;;;;;;;5016504;28;45643;-75
2023/05/02 02:19:28;;;;;;;;;24.75;21.50;;;;;;;;5014858;28;45320;-74
2023/05/02 02:21:54;;;;;;;;;20.75;18.75;;;;;;;;5016251;28;45675;-75
2023/05/02 02:24:21;;;;;;;;;22.00;18.25;;;;;;;;5018632;28;45342;-75
2023/05/02 02:26:46;;;;;;;;;21.25;19.00;;;;;;;;5036388;28;45280;-75
2023/05/02 02:29:12;;;;;;;;;24.75;22.75;;;;;;;;5036259;28;45414;-75
2023/05/02 02:31:38;;;;;;;;;23.75;19.00;;;;;;;;5034989;28;47417;-75
2023/05/02 02:34:04;;;;;;;;;20.00;18.00;;;;;;;;5034980;28;45466;-75
2023/05/02 02:36:35;;;;;;;;;20.50;19.75;;;;;;;;5034894;28;45762;-75
2023/05/02 02:39:03;;;;;;;;;23.75;22.75;;;;;;;;5036207;28;45336;-74
2023/05/02 02:41:55;;;;;;;;;22.50;22.50;;;;;;;;5034527;28;46016;-75
2023/05/02 02:44:29;;;;;;;;;23.00;20.50;;;;;;;;5012703;28;45414;-74
2023/05/02 02:46:59;;;;;;;;;20.00;15.75;;;;;;;;5015859;28;45438;-74
2023/05/02 02:49:25;;;;;;;;;20.75;18.50;;;;;;;;5015778;28;45532;-74
2023/05/02 02:51:58;;;;;;;;;25.00;23.50;;;;;;;;5016107;28;45352;-74
2023/05/02 02:54:38;;;;;;;;;26.75;23.75;;;;;;;;5015938;28;45304;-73
2023/05/02 02:57:06;;;;;;;;;22.00;21.25;;;;;;;;5015875;28;45399;-74
2023/05/02 02:59:33;;;;;;;;;23.00;23.00;;;;;;;;5015866;28;45482;-74
2023/05/02 03:02:08;;;;;;;;;23.25;18.00;;;;;;;;5014368;28;45886;-74
2023/05/02 03:04:36;;;;;;;;;21.50;20.75;;;;;;;;5015792;28;45244;-74
2023/05/02 03:07:02;;;;;;;;;20.75;19.50;;;;;;;;5014536;28;45305;-73
2023/05/02 03:09:32;;;;;;;;;27.25;25.50;;;;;;;;5015646;28;45316;-73
2023/05/02 03:11:57;;;;;;;;;21.00;21.00;;;;;;;;5015236;28;46430;-73
2023/05/02 03:14:22;;;;;;;;;23.50;20.50;;;;;;;;5015512;28;45408;-73
2023/05/02 03:16:48;;;;;;;;;25.00;24.25;;;;;;;;5015928;28;45304;-73
2023/05/02 03:19:14;;;;;;;;;25.25;24.50;;;;;;;;5015585;28;45332;-74
2023/05/02 03:21:40;;;;;;;;;26.75;24.00;;;;;;;;5015481;28;45542;-73
2023/05/02 03:24:05;;;;;;;;;22.25;21.25;;;;;;;;5015680;28;45355;-73
2023/05/02 03:26:30;;;;;;;;;21.50;21.50;;;;;;;;5035677;28;45455;-73
2023/05/02 03:28:56;;;;;;;;;17.00;17.00;;;;;;;;5035600;28;45540;-73
2023/05/02 03:31:21;;;;;;;;;24.25;21.50;;;;;;;;5035291;28;46278;-73
2023/05/02 03:33:47;;;;;;;;;20.50;20.50;;;;;;;;5034683;28;45442;-73
2023/05/02 03:36:12;;;;;;;;;24.00;20.50;;;;;;;;5035586;28;45430;-74
2023/05/02 03:38:37;;;;;;;;;27.75;26.50;;;;;;;;5035419;28;45399;-73
2023/05/02 03:41:03;;;;;;;;;23.25;18.25;;;;;;;;5034932;28;46325;-72
2023/05/02 03:43:28;;;;;;;;;16.50;16.00;;;;;;;;5017037;28;46553;-73
2023/05/02 03:45:53;;;;;;;;;26.25;21.75;;;;;;;;5014217;28;45518;-74
2023/05/02 03:48:19;;;;;;;;;21.50;20.25;;;;;;;;5014903;28;45610;-74
2023/05/02 03:50:44;;;;;;;;;20.00;19.75;;;;;;;;5015229;28;46550;-74
2023/05/02 03:53:09;;;;;;;;;18.25;17.00;;;;;;;;5015363;28;45418;-73
2023/05/02 03:55:41;;;;;;;;;23.75;20.00;;;;;;;;5014092;28;45408;-73
2023/05/02 03:58:07;;;;;;;;;23.25;22.00;;;;;;;;5014957;28;45585;-73
2023/05/02 04:00:32;;;;;;;;;21.75;20.75;;;;;;;;5022376;28;47028;-73
2023/05/02 04:02:59;;;;;;;;;27.25;22.00;;;;;;;;5038544;28;45291;-73
2023/05/02 04:05:24;;;;;;;;;21.50;20.50;;;;;;;;5038528;28;45456;-73
2023/05/02 04:07:50;;;;;;;;;23.25;20.75;;;;;;;;5038728;28;45265;-73
2023/05/02 04:10:16;;;;;;;;;25.00;22.50;;;;;;;;5038331;28;45340;-73
2023/05/02 04:12:42;;;;;;;;;22.00;21.75;;;;;;;;5038231;28;45440;-74
2023/05/02 04:15:08;;;;;;;;;33.00;27.75;;;;;;;;5021876;28;45235;-73
2023/05/02 04:17:33;;;;;;;;;25.00;24.50;;;;;;;;5018384;28;45186;-73
2023/05/02 04:19:58;;;;;;;;;24.75;24.00;;;;;;;;5018111;28;46821;-73
2023/05/02 04:22:24;;;;;;;;;25.25;23.75;;;;;;;;5018106;28;45310;-73
2023/05/02 04:24:49;;;;;;;;;30.75;26.25;;;;;;;;5018322;28;45260;-73
2023/05/02 04:27:14;;;;;;;;;27.75;25.25;;;;;;;;5018625;28;45259;-73
2023/05/02 04:29:39;;;;;;;;;29.25;27.25;;;;;;;;5018384;28;45308;-73
2023/05/02 04:32:05;;;;;;;;;23.50;22.00;;;;;;;;5018785;28;45480;-73
2023/05/02 04:34:30;;;;;;;;;25.00;23.00;;;;;;;;5023005;28;45386;-73
2023/05/02 04:36:56;;;;;;;;;28.50;27.00;;;;;;;;5027227;28;45403;-73
2023/05/02 04:39:21;;;;;;;;;24.25;23.00;;;;;;;;5022472;28;46635;-73
2023/05/02 04:41:47;;;;;;;;;29.50;22.50;;;;;;;;5019103;28;45326;-74
2023/05/02 04:44:12;;;;;;;;;24.25;23.00;;;;;;;;5019283;28;45414;-74
2023/05/02 04:46:37;;;;;;;;;25.25;23.50;;;;;;;;5024542;28;45424;-74
2023/05/02 04:49:02;;;;;;;;;28.50;23.75;;;;;;;;5024130;28;45546;-74
2023/05/02 04:51:28;;;;;;;;;30.00;25.50;;;;;;;;5026626;28;44798;-73
2023/05/02 04:53:53;;;;;;;;;30.25;27.50;;;;;;;;5028540;28;45720;-74
2023/05/02 04:56:18;;;;;;;;;27.25;24.00;;;;;;;;5031404;28;45602;-74
2023/05/02 04:58:43;;;;;;;;;26.25;24.25;;;;;;;;5047738;28;45686;-74
2023/05/02 05:01:08;;;;;;;;;27.50;24.25;;;;;;;;5048536;28;45381;-74
2023/05/02 05:03:34;;;;;;;;;28.25;25.75;;;;;;;;5047461;28;45514;-74
2023/05/02 05:05:59;;;;;;;;;27.25;25.25;;;;;;;;5047535;28;45441;-74
2023/05/02 05:08:24;;;;;;;;;26.25;25.75;;;;;;;;5046060;28;47073;-73
2023/05/02 05:10:50;;;;;;;;;24.50;24.25;;;;;;;;5047166;28;45462;-75
2023/05/02 05:13:15;;;;;;;;;25.00;25.00;;;;;;;;5045329;28;45348;-74
2023/05/02 05:15:40;;;;;;;;;28.50;24.75;;;;;;;;5027990;28;45466;-74
2023/05/02 05:18:05;;;;;;;;;37.75;29.75;;;;;;;;5021177;28;45371;-74
2023/05/02 05:20:31;;;;;;;;;30.00;25.00;;;;;;;;5017400;28;45416;-73
2023/05/02 05:22:56;;;;;;;;;25.25;23.50;;;;;;;;5017787;28;45367;-73
2023/05/02 05:25:22;;;;;;;;;29.25;25.25;;;;;;;;5017947;28;45461;-74
2023/05/02 05:27:47;;;;;;;;;35.00;33.00;;;;;;;;5017408;28;45403;-73
2023/05/02 05:30:12;;;;;;;;;31.50;28.50;;;;;;;;5017188;28;45386;-73
2023/05/02 05:32:37;;;;;;;;;33.75;30.00;;;;;;;;5017481;28;45382;-74
2023/05/02 05:35:03;;;;;;;;;33.00;29.00;;;;;;;;5017573;28;45348;-73
2023/05/02 05:37:28;;;;;;;;;37.00;26.50;;;;;;;;5017463;28;46866;-74
2023/05/02 05:39:54;;;;;;;;;34.75;28.50;;;;;;;;5017321;28;45301;-74
2023/05/02 05:42:19;;;;;;;;;31.75;29.50;;;;;;;;5017291;28;45232;-73
2023/05/02 05:44:44;;;;;;;;;26.25;24.75;;;;;;;;5017160;28;45329;-74
2023/05/02 05:47:10;;;;;;;;;31.00;26.00;;;;;;;;5016062;28;47862;-74
2023/05/02 05:49:35;;;;;;;;;31.50;30.00;;;;;;;;5017275;28;45450;-74
2023/05/02 05:52:01;;;;;;;;;27.00;24.00;;;;;;;;5017571;28;45296;-74
2023/05/02 05:54:26;;;;;;;;;34.25;31.75;;;;;;;;5018158;28;45399;-73
2023/05/02 05:56:51;;;;;;;;;27.25;24.00;;;;;;;;5016014;28;47836;-74
2023/05/02 05:59:16;;;;;;;;;33.50;27.50;;;;;;;;5017024;28;45221;-74
2023/05/02 06:01:41;;;;;;;;;24.00;22.50;;;;;;;;5017462;28;45451;-74
2023/05/02 06:04:07;;;;;;;;;24.75;23.50;;;;;;;;5015823;28;45349;-74
2023/05/02 06:06:32;;;;;;;;;24.50;22.25;;;;;;;;5016409;28;47967;-74
2023/05/02 06:08:57;;;;;;;;;22.50;20.50;;;;;;;;5016524;28;45348;-73
2023/05/02 06:11:25;;;;;;;;;24.75;19.75;;;;;;;;5016896;28;45347;-74
2023/05/02 06:13:51;;;;;;;;;21.25;19.00;;;;;;;;5016728;28;45347;-73
2023/05/02 06:16:19;;;;;;;;;20.50;18.00;;;;;;;;5015371;28;46794;-73
2023/05/02 06:18:45;;;;;;;;;21.00;19.00;;;;;;;;5016860;28;45279;-74
2023/05/02 06:21:10;;;;;;;;;25.75;22.50;;;;;;;;5016213;28;45264;-74
2023/05/02 06:23:36;;;;;;;;;29.25;23.00;;;;;;;;5016449;28;45459;-74
2023/05/02 06:26:02;;;;;;;;;23.50;17.75;;;;;;;;5015170;28;46906;-74
2023/05/02 06:28:27;;;;;;;;;17.00;15.00;;;;;;;;5015407;28;45404;-73
2023/05/02 06:30:59;;;;;;;;;22.50;22.50;;;;;;;;5016411;28;45354;-74
2023/05/02 06:33:25;;;;;;;;;18.25;18.25;;;;;;;;5016582;28;45250;-74
2023/05/02 06:35:51;;;;;;;;;17.50;16.00;;;;;;;;5016506;28;46409;-75
2023/05/02 06:38:17;;;;;;;;;22.25;16.75;;;;;;;;5016041;28;45303;-74
2023/05/02 06:40:44;;;;;;;;;24.25;22.00;;;;;;;;4998816;28;45383;-74
2023/05/02 06:43:09;;;;;;;;;13.50;13.25;;;;;;;;5016476;28;45312;-74
2023/05/02 06:45:34;;;;;;;;;23.25;20.50;;;;;;;;5014954;28;46706;-73
2023/05/02 06:47:59;;;;;;;;;21.00;18.50;;;;;;;;5015976;28;45265;-74
2023/05/02 06:50:25;;;;;;;;;21.25;20.25;;;;;;;;5016898;28;45402;-74
2023/05/02 06:52:50;;;;;;;;;20.25;17.75;;;;;;;;5018845;28;45466;-74
2023/05/02 06:55:15;;;;;;;;;25.25;22.25;;;;;;;;5016062;28;46517;-74
2023/05/02 06:57:41;;;;;;;;;19.00;18.00;;;;;;;;5016099;28;45474;-74
2023/05/02 07:00:06;;;;;;;;;19.00;18.75;;;;;;;;5014880;28;45420;-74
2023/05/02 07:02:31;;;;;;;;;23.25;19.00;;;;;;;;5016087;28;45537;-74
2023/05/02 07:04:57;;;;;;;;;17.00;16.75;;;;;;;;5015983;28;45582;-74
2023/05/02 07:07:22;;;;;;;;;15.00;14.25;;;;;;;;5016148;28;45392;-74
2023/05/02 07:09:47;;;;;;;;;23.75;19.50;;;;;;;;5016104;28;45377;-74
2023/05/02 07:12:12;;;;;;;;;23.25;21.00;;;;;;;;5016032;28;45284;-73
2023/05/02 07:14:38;;;;;;;;;18.00;16.75;;;;;;;;5015934;28;46317;-74
2023/05/02 07:17:03;;;;;;;;;21.25;20.75;;;;;;;;4998277;28;45377;-74
2023/05/02 07:19:28;;;;;;;;;18.75;17.50;;;;;;;;5016146;28;45425;-74
2023/05/02 07:21:54;;;;;;;;;23.25;20.75;;;;;;;;5014852;28;45538;-75
2023/05/02 07:24:19;;;;;;;;;25.25;23.50;;;;;;;;5018163;28;45485;-75
2023/05/02 07:26:44;;;;;;;;;30.25;24.50;;;;;;;;5035627;28;45383;-75
2023/05/02 07:29:10;;;;;;;;;23.25;19.25;;;;;;;;5035873;28;45260;-75
2023/05/02 07:31:35;;;;;;;;;27.50;24.50;;;;;;;;5035586;28;45426;-75
2023/05/02 07:34:00;;;;;;;;;28.00;23.25;;;;;;;;5034319;28;45521;-74
2023/05/02 07:36:26;;;;;;;;;28.50;25.50;;;;;;;;5035504;28;45430;-74
2023/05/02 07:38:52;;;;;;;;;24.25;22.75;;;;;;;;5035507;28;45473;-74
2023/05/02 07:41:17;;;;;;;;;23.75;22.75;;;;;;;;5033830;28;45423;-74
2023/05/02 07:43:42;;;;;;;;;27.25;24.00;;;;;;;;5015196;28;46344;-75
2023/05/02 07:46:07;;;;;;;;;25.00;22.50;;;;;;;;5015607;28;45400;-74
2023/05/02 07:48:33;;;;;;;;;24.00;20.75;;;;;;;;5015562;28;45425;-74
2023/05/02 07:51:05;;;;;;;;;28.75;25.75;;;;;;;;5015347;28;45328;-74
2023/05/02 07:53:30;;;;;;;;;28.75;26.75;;;;;;;;5013519;28;47284;-73
2023/05/02 07:55:55;;;;;;;;;22.75;21.75;;;;;;;;4997694;28;45419;-74
2023/05/02 07:58:20;;;;;;;;;26.75;24.25;;;;;;;;5015397;28;45501;-74
2023/05/02 08:00:45;;;;;;;;;24.50;22.50;;;;;;;;5015350;28;45283;-73
2023/05/02 08:03:11;;;;;;;;;22.25;21.75;;;;;;;;5014049;28;45359;-76
2023/05/02 08:05:36;;;;;;;;;21.50;21.50;;;;;;;;5013941;28;45396;-74
2023/05/02 08:08:01;;;;;;;;;27.00;24.00;;;;;;;;5015431;28;45307;-74
2023/05/02 08:10:27;;;;;;;;;24.50;24.00;;;;;;;;5015434;28;45363;-74
2023/05/02 08:12:52;;;;;;;;;28.25;26.00;;;;;;;;5013418;28;46734;-74
2023/05/02 08:15:18;;;;;;;;;24.25;23.25;;;;;;;;5015180;28;45264;-73
2023/05/02 08:17:43;;;;;;;;;28.50;25.75;;;;;;;;5015388;28;45283;-74
2023/05/02 08:20:08;;;;;;;;;29.75;27.75;;;;;;;;5015112;28;45399;-74
2023/05/02 08:22:33;;;;;;;;;27.25;26.50;;;;;;;;5014754;28;46143;-75
2023/05/02 08:24:59;;;;;;;;;36.00;31.00;;;;;;;;5024591;28;45400;-74
2023/05/02 08:27:24;;;;;;;;;33.25;31.25;;;;;;;;5035201;28;45381;-75
2023/05/02 08:29:49;;;;;;;;;30.25;30.00;;;;;;;;5034911;28;45407;-74
2023/05/02 08:32:15;;;;;;;;;28.50;24.75;;;;;;;;5034936;28;45973;-74
2023/05/02 08:34:40;;;;;;;;;30.00;25.50;;;;;;;;5034647;28;45322;-74
2023/05/02 08:37:08;;;;;;;;;29.50;27.00;;;;;;;;5034675;28;45448;-74
2023/05/02 08:39:34;;;;;;;;;25.00;23.50;;;;;;;;5034634;28;45401;-75
2023/05/02 08:41:59;;;;;;;;;34.75;32.25;;;;;;;;5028592;28;46486;-75
2023/05/02 08:44:24;;;;;;;;;29.75;27.00;;;;;;;;5013767;28;45321;-75
2023/05/02 08:46:51;;;;;;;;;32.50;29.50;;;;;;;;5016944;28;45348;-74
2023/05/02 08:49:17;;;;;;;;;33.50;26.50;;;;;;;;5018399;28;45248;-74
2023/05/02 08:51:43;;;;;;;;;30.75;30.50;;;;;;;;5017940;28;45375;-75
2023/05/02 08:54:09;;;;;;;;;28.75;24.25;;;;;;;;5017654;28;45525;-74
2023/05/02 08:56:35;;;;;;;;;18.50;17.25;;;;;;;;5016840;28;45445;-74
2023/05/02 08:59:00;;;;;;;;;25.75;21.00;;;;;;;;5018171;28;45414;-74
2023/05/02 09:01:29;;;;;;;;;18.00;18.00;;;;;;;;5018127;28;46013;-75
2023/05/02 09:03:56;;;;;;;;;21.75;20.50;;;;;;;;5017960;28;45378;-75
2023/05/02 09:06:21;;;;;;;;;22.25;21.00;;;;;;;;5018004;28;45389;-74
2023/05/02 09:08:51;;;;;;;;;22.25;21.50;;;;;;;;5016648;28;45650;-76
2023/05/02 09:11:17;;;;;;;;;26.00;22.25;;;;;;;;5018089;28;45628;-76
2023/05/02 09:13:42;;;;;;;;;19.25;17.00;;;;;;;;5017647;28;45410;-75
2023/05/02 09:16:07;;;;;;;;;19.00;18.25;;;;;;;;5020694;28;45316;-74
2023/05/02 09:18:37;;;;;;;;;23.75;22.50;;;;;;;;5037555;28;45311;-74
2023/05/02 09:21:09;;;;;;;;;19.00;16.00;;;;;;;;5037290;28;46430;-74
2023/05/02 09:23:34;;;;;;;;;18.00;15.00;;;;;;;;5037848;28;45358;-75
2023/05/02 09:26:00;;;;;;;;;19.75;14.00;;;;;;;;5036194;28;45200;-74
2023/05/02 09:28:39;;;;;;;;;19.00;19.00;;;;;;;;5037727;28;45505;-74
2023/05/02 09:31:08;;;;;;;;;19.00;16.25;;;;;;;;5037396;28;45359;-74
2023/05/02 09:33:34;;;;;;;;;23.75;18.25;;;;;;;;5037254;28;45380;-74
2023/05/02 09:35:59;;;;;;;;;18.00;15.25;;;;;;;;5029281;28;45456;-74
2023/05/02 09:38:25;;;;;;;;;14.50;13.25;;;;;;;;5017814;28;45516;-74
2023/05/02 09:40:56;;;;;;;;;16.00;15.50;;;;;;;;5015933;28;46964;-74
2023/05/02 09:43:21;;;;;;;;;16.00;15.00;;;;;;;;5016071;28;46237;-75
2023/05/02 09:46:06;;;;;;;;;15.25;13.75;;;;;;;;5016556;28;45335;-75
2023/05/02 09:48:33;;;;;;;;;13.75;11.75;;;;;;;;5017548;28;45500;-74
2023/05/02 09:50:58;;;;;;;;;15.00;15.00;;;;;;;;5016733;28;46071;-73
2023/05/02 09:53:24;;;;;;;;;18.50;16.50;;;;;;;;5017160;28;45361;-75
2023/05/02 09:56:00;;;;;;;;;13.75;12.50;;;;;;;;5017073;28;45348;-76
2023/05/02 09:58:25;;;;;;;;;14.00;14.00;;;;;;;;5017086;28;45392;-75
2023/05/02 10:00:52;;;;;;;;;20.75;19.75;;;;;;;;5016681;28;45391;-75
2023/05/02 10:03:18;;;;;;;;;14.00;14.00;;;;;;;;5015856;28;45344;-75
2023/05/02 10:05:44;;;;;;;;;19.25;18.50;;;;;;;;5017077;28;45448;-76
2023/05/02 10:08:10;;;;;;;;;16.50;16.50;;;;;;;;5017082;28;45408;-76
2023/05/02 10:10:36;;;;;;;;;9.25;8.25;;;;;;;;5015621;28;47629;-76
2023/05/02 10:13:05;;;;;;;;;13.50;13.25;;;;;;;;5026654;28;45462;-76
2023/05/02 10:15:31;;;;;;;;;16.00;16.00;;;;;;;;5015711;28;45294;-78
2023/05/02 10:17:57;;;;;;;;;15.50;15.50;;;;;;;;5016995;28;45426;-77
2023/05/02 10:20:25;;;;;;;;;16.00;16.00;;;;;;;;5016814;28;46765;-76
2023/05/02 10:22:52;;;;;;;;;8.50;8.50;;;;;;;;5016937;28;45375;-77
2023/05/02 10:25:17;;;;;;;;;15.25;15.25;;;;;;;;5016883;28;45416;-79
2023/05/02 10:27:43;;;;;;;;;18.75;18.75;;;;;;;;5017126;28;45418;-79
2023/05/02 10:30:09;;;;;;;;;14.25;14.25;;;;;;;;4998792;28;47308;-78
2023/05/02 10:32:35;;;;;;;;;12.00;11.75;;;;;;;;5015457;28;45294;-79
2023/05/02 10:35:04;;;;;;;;;25.00;20.50;;;;;;;;5016484;28;45361;-79
2023/05/02 10:37:32;;;;;;;;;16.00;14.75;;;;;;;;5016705;28;45509;-78
2023/05/02 10:39:58;;;;;;;;;16.50;16.50;;;;;;;;5016948;28;46613;-79
2023/05/02 10:42:23;;;;;;;;;17.00;16.00;;;;;;;;5017370;28;45387;-79
2023/05/02 10:44:49;;;;;;;;;17.25;14.50;;;;;;;;5017147;28;45332;-79
2023/05/02 10:47:22;;;;;;;;;21.50;17.50;;;;;;;;5017395;28;45236;-79
2023/05/02 10:50:00;;;;;;;;;16.25;15.25;;;;;;;;5016702;28;46020;-78
2023/05/02 10:52:25;;;;;;;;;16.50;16.00;;;;;;;;5016679;28;45367;-79
2023/05/02 10:54:51;;;;;;;;;18.25;18.25;;;;;;;;5016804;28;45290;-80
2023/05/02 10:57:16;;;;;;;;;19.25;15.75;;;;;;;;5015531;28;45483;-78
2023/05/02 10:59:41;;;;;;;;;21.00;20.50;;;;;;;;5016183;28;45690;-78
2023/05/02 11:02:26;;;;;;;;;22.00;21.25;;;;;;;;5015386;28;45316;-77
2023/05/02 11:05:04;;;;;;;;;29.25;23.25;;;;;;;;5016754;28;45253;-79
2023/05/02 11:07:30;;;;;;;;;22.25;22.25;;;;;;;;5016131;28;45404;-77
2023/05/02 11:10:14;;;;;;;;;22.25;21.25;;;;;;;;5015031;28;48659;-77
2023/05/02 11:12:43;;;;;;;;;20.00;16.25;;;;;;;;5023512;28;45426;-78
2023/05/02 11:15:08;;;;;;;;;21.50;20.75;;;;;;;;5019718;28;45418;-78
2023/05/02 11:17:53;;;;;;;;;22.00;20.50;;;;;;;;5016004;28;45443;-75
2023/05/02 11:20:19;;;;;;;;;19.00;17.75;;;;;;;;5015464;28;46914;-75
2023/05/02 11:22:45;;;;;;;;;18.00;16.75;;;;;;;;5015896;28;45304;-73
2023/05/02 11:25:28;;;;;;;;;12.50;11.75;;;;;;;;5015738;28;45202;-74
2023/05/02 11:27:53;;;;;;;;;18.25;17.00;;;;;;;;5015980;28;45388;-74
2023/05/02 11:30:35;;;;;;;;;17.25;15.50;;;;;;;;5015342;28;46110;-74
2023/05/02 11:33:03;;;;;;;;;20.25;17.50;;;;;;;;5015247;28;45450;-74
2023/05/02 11:35:30;;;;;;;;;13.00;13.00;;;;;;;;5015748;28;45362;-74
2023/05/02 11:37:56;;;;;;;;;16.25;16.25;;;;;;;;5014276;28;45650;-73
2023/05/02 11:40:22;;;;;;;;;17.50;16.25;;;;;;;;5015244;28;45385;-73
2023/05/02 11:42:47;;;;;;;;;20.50;16.00;;;;;;;;5015219;28;45406;-74
2023/05/02 11:45:13;;;;;;;;;14.75;14.75;;;;;;;;5014990;28;45398;-74
2023/05/02 11:47:40;;;;;;;;;14.00;14.00;;;;;;;;5015822;28;45537;-74
2023/05/02 11:50:05;;;;;;;;;15.75;15.75;;;;;;;;5015176;28;46106;-73
2023/05/02 11:52:35;;;;;;;;;18.50;18.50;;;;;;;;5015175;28;45394;-73
2023/05/02 11:55:00;;;;;;;;;10.00;8.50;;;;;;;;5015468;28;45376;-73
2023/05/02 11:57:26;;;;;;;;;19.00;14.75;;;;;;;;5013997;28;45339;-73
2023/05/02 11:59:52;;;;;;;;;16.75;16.75;;;;;;;;5014954;28;46274;-73
2023/05/02 12:02:18;;;;;;;;;17.50;16.00;;;;;;;;5015124;28;45350;-73
2023/05/02 12:04:43;;;;;;;;;10.00;10.00;;;;;;;;5014275;28;45376;-73
2023/05/02 12:07:09;;;;;;;;;17.50;16.50;;;;;;;;5013888;28;45387;-74
2023/05/02 12:09:34;;;;;;;;;8.75;8.75;;;;;;;;5015247;28;45328;-74
2023/05/02 12:12:00;;;;;;;;;14.00;14.00;;;;;;;;5013972;28;45509;-73
2023/05/02 12:14:32;;;;;;;;;17.25;16.00;;;;;;;;5015075;28;45445;-73
2023/05/02 12:16:58;;;;;;;;;15.50;15.25;;;;;;;;5025487;28;45372;-74
2023/05/02 12:19:23;;;;;;;;;19.00;15.25;;;;;;;;5034679;28;46018;-74
2023/05/02 12:21:49;;;;;;;;;12.25;11.25;;;;;;;;5038834;28;45370;-73
2023/05/02 12:24:14;;;;;;;;;19.50;18.25;;;;;;;;5037277;28;45533;-74
2023/05/02 12:26:40;;;;;;;;;13.00;10.75;;;;;;;;5038689;28;45420;-73
2023/05/02 12:29:06;;;;;;;;;13.50;13.50;;;;;;;;5037904;28;45465;-73
2023/05/02 12:31:32;;;;;;;;;15.75;14.00;;;;;;;;5037011;28;45403;-73
2023/05/02 12:33:58;;;;;;;;;14.75;13.50;;;;;;;;5037085;28;45450;-73
2023/05/02 12:36:24;;;;;;;;;11.50;11.50;;;;;;;;5038334;28;45591;-73
2023/05/02 12:38:55;;;;;;;;;17.50;14.25;;;;;;;;5038230;28;46999;-74
2023/05/02 12:41:37;;;;;;;;;18.00;16.75;;;;;;;;5036329;28;45865;-73
2023/05/02 12:44:06;;;;;;;;;13.75;13.75;;;;;;;;5016604;28;45367;-74
2023/05/02 12:46:31;;;;;;;;;17.00;14.25;;;;;;;;5017091;28;45461;-73
2023/05/02 12:49:02;;;;;;;;;9.00;6.50;;;;;;;;5017708;28;45464;-73
2023/05/02 12:51:30;;;;;;;;;11.75;10.50;;;;;;;;5018245;28;45382;-74
2023/05/02 12:53:55;;;;;;;;;9.75;9.75;;;;;;;;5017736;28;45426;-74
2023/05/02 12:56:21;;;;;;;;;14.00;11.75;;;;;;;;5017843;28;45382;-74
2023/05/02 12:58:47;;;;;;;;;12.00;10.75;;;;;;;;5017716;28;45534;-73
2023/05/02 13:01:13;;;;;;;;;12.75;9.75;;;;;;;;5016714;28;45385;-73
2023/05/02 13:03:39;;;;;;;;;14.25;12.50;;;;;;;;5018091;28;45374;-74
2023/05/02 13:06:05;;;;;;;;;7.75;5.75;;;;;;;;5017998;28;45406;-73
2023/05/02 13:08:31;;;;;;;;;8.50;7.75;;;;;;;;5017814;28;45339;-74
2023/05/02 13:10:56;;;;;;;;;9.00;7.75;;;;;;;;5016651;28;46078;-74
2023/05/02 13:13:21;;;;;;;;;9.50;8.50;;;;;;;;5016160;28;45360;-74
2023/05/02 13:15:47;;;;;;;;;8.75;8.75;;;;;;;;5018533;28;45558;-73
2023/05/02 13:18:12;;;;;;;;;9.75;8.75;;;;;;;;5037283;28;46439;-73
2023/05/02 13:20:37;;;;;;;;;12.00;11.00;;;;;;;;5037516;28;45351;-74
2023/05/02 13:23:02;;;;;;;;;9.50;7.25;;;;;;;;5038926;28;45359;-74
2023/05/02 13:25:28;;;;;;;;;10.25;10.25;;;;;;;;5037343;28;45283;-75
2023/05/02 13:27:53;;;;;;;;;7.75;7.75;;;;;;;;5037519;28;45284;-74
2023/05/02 13:30:18;;;;;;;;;7.75;6.00;;;;;;;;5036233;28;45425;-75
2023/05/02 13:32:43;;;;;;;;;11.50;10.25;;;;;;;;5036379;28;45335;-72
2023/05/02 13:35:09;;;;;;;;;8.50;8.50;;;;;;;;5037257;28;45215;-73
2023/05/02 13:37:34;;;;;;;;;6.25;5.75;;;;;;;;5037487;28;46550;-72
2023/05/02 13:40:00;;;;;;;;;7.00;7.00;;;;;;;;5037167;28;45505;-74
2023/05/02 13:42:25;;;;;;;;;7.75;7.00;;;;;;;;5028227;28;45373;-74
2023/05/02 13:44:50;;;;;;;;;6.00;6.00;;;;;;;;5017407;28;45560;-74
2023/05/02 13:47:16;;;;;;;;;9.00;7.00;;;;;;;;5016001;28;46037;-75
2023/05/02 13:49:41;;;;;;;;;6.00;6.00;;;;;;;;5017216;28;45291;-73
2023/05/02 13:52:06;;;;;;;;;7.75;7.75;;;;;;;;5017255;28;45241;-74
2023/05/02 13:54:31;;;;;;;;;11.25;9.25;;;;;;;;5015845;28;45598;-75
2023/05/02 13:56:56;;;;;;;;;8.00;7.75;;;;;;;;5016806;28;46521;-74
2023/05/02 13:59:22;;;;;;;;;10.50;9.25;;;;;;;;5017108;28;45395;-73
2023/05/02 14:01:47;;;;;;;;;10.25;9.00;;;;;;;;5017226;28;45393;-73
2023/05/02 14:04:13;;;;;;;;;8.25;8.25;;;;;;;;5015760;28;45411;-74
2023/05/02 14:06:38;;;;;;;;;6.50;5.75;;;;;;;;5016909;28;45327;-73
2023/05/02 14:09:03;;;;;;;;;7.50;7.50;;;;;;;;5015322;28;45545;-73
2023/05/02 14:11:28;;;;;;;;;7.25;6.25;;;;;;;;5016903;28;45462;-74
2023/05/02 14:13:56;;;;;;;;;7.00;7.00;;;;;;;;5016963;28;45393;-73
2023/05/02 14:16:21;;;;;;;;;7.25;7.25;;;;;;;;5016562;28;45919;-73